Time;durP1;ratioP1;P1;durP2;ratioP2;P2;SDS_P1;SDS_P2;PMS_P1;PMS_P2;Temp;Humidity;BMP_temperature;BMP_pressure;BME280_temperature;BME280_humidity;BME280_pressure;Samples;Min_cycle;Max_cycle;Signal;HPM_P1;HPM_P2
2020/12/12 00:01:53;;;;;;;43.42;19.92;;;;;;;4.86;74.60;98633.50;4170909;34;33316;-89
2020/12/12 00:04:26;;;;;;;43.87;20.48;;;;;;;4.72;74.67;98627.06;4204766;34;33656;-89
2020/12/12 00:07:02;;;;;;;39.40;19.95;;;;;;;4.61;75.27;98631.00;4280152;28;33737;-94
2020/12/12 00:10:15;;;;;;;39.30;18.35;;;;;;;4.76;74.87;98623.00;4281078;28;32646;-91
2020/12/12 00:12:48;;;;;;;42.45;19.33;;;;;;;4.61;75.27;98620.28;4223048;28;34191;-93
2020/12/12 00:15:49;;;;;;;37.17;19.37;;;;;;;4.20;76.77;98623.16;4232404;33;34397;-96
2020/12/12 00:18:22;;;;;;;49.95;20.92;;;;;;;4.67;75.16;98629.44;4236916;33;33889;-90
2020/12/12 00:20:54;;;;;;;42.20;20.48;;;;;;;4.45;75.73;98617.69;4245458;33;34422;-94
2020/12/12 00:23:26;;;;;;;38.13;19.27;;;;;;;4.89;74.38;98622.44;4211740;33;34213;-89
2020/12/12 00:25:59;;;;;;;37.67;21.27;;;;;;;4.91;74.31;98607.00;4250921;33;34552;-96
2020/12/12 00:28:33;;;;;;;42.25;19.23;;;;;;;4.79;74.95;98609.28;4226358;33;32217;-92
2020/12/12 00:31:16;;;;;;;39.25;18.48;;;;;;;4.59;75.39;98611.59;4226983;33;34454;-96
2020/12/12 00:34:22;;;;;;;51.00;19.02;;;;;;;4.53;75.49;98606.94;4218755;33;20510;-96
2020/12/12 00:37:11;;;;;;;36.60;19.95;;;;;;;5.01;73.95;98606.78;4179293;34;32745;-90
2020/12/12 00:39:57;;;;;;;36.50;17.45;;;;;;;5.07;73.92;98604.22;4180774;34;32486;-89
2020/12/12 00:42:31;;;;;;;35.60;18.30;;;;;;;5.16;73.54;98606.84;4205228;34;33713;-96
2020/12/12 00:45:06;;;;;;;35.50;17.33;;;;;;;4.56;75.70;98601.22;4180947;34;32038;-96
2020/12/12 00:47:53;;;;;;;34.80;17.00;;;;;;;4.76;75.27;98598.91;4220259;28;34727;-89
2020/12/12 00:50:25;;;;;;;34.90;17.48;;;;;;;4.93;74.41;98602.31;4227887;33;33924;-89
2020/12/12 00:52:58;;;;;;;32.03;16.70;;;;;;;5.12;73.81;98590.31;4224380;33;32929;-96
2020/12/12 00:55:53;;;;;;;35.72;17.25;;;;;;;5.05;73.70;98584.81;4192652;33;34043;-96
2020/12/12 00:58:41;;;;;;;35.88;18.00;;;;;;;4.91;74.32;98590.94;4212926;28;35186;-96
2020/12/12 01:01:14;;;;;;;38.28;16.77;;;;;;;4.52;75.91;98589.19;4246769;33;32967;-89
2020/12/12 01:03:48;;;;;;;37.63;18.62;;;;;;;4.84;74.87;98592.69;4250500;33;34490;-96
2020/12/12 01:06:23;;;;;;;29.40;15.70;;;;;;;4.77;74.95;98587.19;4236466;33;32967;-93
2020/12/12 01:08:55;;;;;;;31.70;16.17;;;;;;;4.75;74.45;98590.06;4271329;28;33797;-89
2020/12/12 01:11:27;;;;;;;31.15;16.60;;;;;;;4.47;75.75;98586.25;4239324;33;34375;-95
2020/12/12 01:14:00;;;;;;;32.55;16.12;;;;;;;4.57;75.39;98584.16;4240794;33;34600;-96
2020/12/12 01:16:32;;;;;;;27.80;13.80;;;;;;;4.73;74.88;98585.88;4238730;33;32473;-96
2020/12/12 01:19:21;;;;;;;32.65;15.50;;;;;;;4.88;74.08;98583.28;4170755;34;34990;-89
2020/12/12 01:21:54;;;;;;;32.45;15.23;;;;;;;4.45;75.72;98586.41;4178055;34;33848;-96
2020/12/12 01:24:30;;;;;;;31.98;15.13;;;;;;;4.85;74.49;98588.97;4162772;34;35241;-95
2020/12/12 01:27:02;;;;;;;27.67;13.68;;;;;;;4.87;74.36;98581.63;4163635;34;33782;-95
2020/12/12 01:29:50;;;;;;;27.60;15.00;;;;;;;4.85;74.26;98583.63;4187177;34;35294;-95
2020/12/12 01:32:22;;;;;;;33.05;14.85;;;;;;;4.78;74.35;98584.34;4207779;34;34382;-95
2020/12/12 01:35:40;;;;;;;33.00;15.40;;;;;;;4.87;74.48;98577.09;4146080;34;36552;-96
2020/12/12 01:38:16;;;;;;;25.25;13.68;;;;;;;4.96;74.02;98575.19;4156657;34;33820;-96
2020/12/12 01:41:03;;;;;;;29.65;14.80;;;;;;;4.76;74.48;98573.00;4206614;33;33401;-96
2020/12/12 01:43:36;;;;;;;30.77;15.98;;;;;;;4.82;74.56;98575.97;4217957;34;34144;-87
2020/12/12 01:46:08;;;;;;;30.98;15.68;;;;;;;4.88;74.58;98575.25;4220151;34;33763;-96
2020/12/12 01:48:40;;;;;;;26.83;13.82;;;;;;;5.00;74.00;98571.16;4218074;34;32209;-88
2020/12/12 01:51:13;;;;;;;28.90;15.35;;;;;;;5.00;74.10;98564.94;4233436;33;33570;-96
2020/12/12 01:53:45;;;;;;;34.33;16.42;;;;;;;4.96;74.31;98567.16;4217515;33;34849;-88
2020/12/12 01:56:18;;;;;;;29.42;14.73;;;;;;;5.11;73.61;98559.16;4217933;34;34623;-88
2020/12/12 01:58:52;;;;;;;23.58;12.40;;;;;;;5.24;73.31;98566.56;4245284;33;33384;-95
2020/12/12 02:01:54;;;;;;;30.85;14.93;;;;;;;5.27;72.69;98560.87;4206266;34;35139;-88
2020/12/12 02:04:28;;;;;;;29.20;15.02;;;;;;;4.18;77.36;98564.47;4204669;34;33198;-96
2020/12/12 02:07:00;;;;;;;27.02;13.40;;;;;;;4.57;76.12;98570.78;4206494;34;34177;-96
2020/12/12 02:09:46;;;;;;;28.10;13.73;;;;;;;5.20;73.92;98573.31;4169217;34;34705;-93
2020/12/12 02:12:18;;;;;;;28.02;14.05;;;;;;;4.49;76.07;98562.81;4193485;34;34079;-95
2020/12/12 02:15:02;;;;;;;27.98;14.18;;;;;;;4.72;75.30;98562.81;4221666;33;33831;-96
2020/12/12 02:17:35;;;;;;;24.60;13.38;;;;;;;4.95;74.55;98563.66;4210510;33;33152;-96
2020/12/12 02:20:35;;;;;;;23.23;12.85;;;;;;;4.57;76.14;98560.09;4191194;34;33760;-87
2020/12/12 02:23:07;;;;;;;24.08;12.15;;;;;;;5.08;74.18;98560.34;4190046;34;33600;-96
2020/12/12 02:26:04;;;;;;;23.65;12.52;;;;;;;5.00;74.18;98560.44;4195509;33;32252;-96
2020/12/12 02:28:49;;;;;;;21.73;12.27;;;;;;;5.11;73.93;98551.94;4326400;28;35496;-89
2020/12/12 02:31:25;;;;;;;21.98;11.60;;;;;;;4.95;74.13;98544.06;4223090;33;33330;-88
2020/12/12 02:33:57;;;;;;;20.45;9.85;;;;;;;4.60;75.42;98549.03;4207162;34;34580;-88
2020/12/12 02:36:49;;;;;;;17.23;11.30;;;;;;;4.62;75.24;98549.66;4220418;33;33867;-94
2020/12/12 02:39:28;;;;;;;23.27;11.00;;;;;;;4.19;77.15;98542.09;4179129;34;34653;-94
2020/12/12 02:42:01;;;;;;;20.12;9.90;;;;;;;4.23;76.12;98548.72;4229560;28;33068;-96
2020/12/12 02:44:34;;;;;;;19.92;9.60;;;;;;;4.74;74.88;98545.56;4198409;33;33562;-88
2020/12/12 02:47:06;;;;;;;20.30;11.20;;;;;;;5.20;73.05;98541.16;4233374;33;34774;-96
2020/12/12 02:49:38;;;;;;;24.40;12.90;;;;;;;5.09;73.54;98543.28;4210986;33;33134;-88
2020/12/12 02:52:13;;;;;;;17.12;9.98;;;;;;;5.05;73.57;98535.78;4233901;33;34213;-96
2020/12/12 02:54:45;;;;;;;21.00;12.07;;;;;;;5.39;72.70;98532.59;4231494;33;32936;-96
2020/12/12 02:57:30;;;;;;;21.92;11.70;;;;;;;5.37;72.82;98542.66;4177981;34;33836;-90
2020/12/12 03:00:18;;;;;;;20.23;11.30;;;;;;;5.00;73.63;98549.72;4219232;33;34944;-96
2020/12/12 03:03:04;;;;;;;21.95;11.52;;;;;;;5.17;73.43;98549.56;4195932;34;32847;-88
2020/12/12 03:05:36;;;;;;;22.33;12.05;;;;;;;4.99;74.13;98542.69;4219001;34;34003;-96
2020/12/12 03:08:20;;;;;;;22.55;12.37;;;;;;;5.07;74.14;98553.31;4168209;34;33250;-88
2020/12/12 03:10:53;;;;;;;19.60;11.98;;;;;;;5.16;73.85;98547.91;4196496;34;33500;-95
2020/12/12 03:13:37;;;;;;;26.17;12.02;;;;;;;5.07;74.36;98550.63;4168788;34;34333;-87
2020/12/12 03:16:09;;;;;;;23.42;12.07;;;;;;;5.52;73.02;98542.66;4211009;34;35149;-95
2020/12/12 03:18:53;;;;;;;19.05;11.15;;;;;;;5.15;73.93;98540.88;4214194;34;34638;-86
2020/12/12 03:21:25;;;;;;;25.48;11.90;;;;;;;5.14;74.33;98540.03;4204978;34;33711;-87
2020/12/12 03:23:58;;;;;;;21.75;11.80;;;;;;;5.47;73.08;98543.22;4193412;34;33506;-86
2020/12/12 03:26:30;;;;;;;21.02;11.82;;;;;;;5.27;73.48;98539.44;4205048;34;34743;-89
2020/12/12 03:29:02;;;;;;;25.30;13.13;;;;;;;5.25;74.06;98541.44;4205852;34;33977;-86
2020/12/12 03:31:34;;;;;;;24.08;12.45;;;;;;;5.23;74.25;98538.13;4199528;34;35701;-96
2020/12/12 03:34:21;;;;;;;20.25;12.37;;;;;;;5.56;73.04;98535.09;4218631;33;32860;-93
2020/12/12 03:36:53;;;;;;;22.35;12.02;;;;;;;5.61;73.02;98540.75;4233641;33;33993;-85
2020/12/12 03:39:25;;;;;;;21.08;12.00;;;;;;;5.77;72.49;98527.16;4246315;33;33863;-88
2020/12/12 03:41:57;;;;;;;23.77;12.52;;;;;;;5.63;72.70;98523.47;4222835;33;34665;-96
2020/12/12 03:44:41;;;;;;;21.40;12.63;;;;;;;5.79;72.13;98517.09;4182535;34;34328;-93
2020/12/12 03:47:13;;;;;;;20.25;11.48;;;;;;;5.27;74.32;98518.81;4184104;34;34646;-96
2020/12/12 03:49:57;;;;;;;18.42;10.43;;;;;;;5.20;74.67;98519.75;4172214;34;32614;-93
2020/12/12 03:52:30;;;;;;;21.02;11.12;;;;;;;5.17;74.38;98522.78;4216104;34;33946;-87
2020/12/12 03:55:03;;;;;;;24.67;10.90;;;;;;;5.33;73.92;98517.25;4195234;34;33320;-88
2020/12/12 03:57:36;;;;;;;23.08;12.05;;;;;;;5.58;73.30;98525.03;4206389;34;34992;-91
2020/12/12 04:00:33;;;;;;;22.83;11.73;;;;;;;4.89;75.58;98521.50;4209228;33;34437;-96
2020/12/12 04:03:24;;;;;;;20.65;10.48;;;;;;;5.54;73.48;98521.91;4199331;34;34923;-93
2020/12/12 04:05:58;;;;;;;18.37;10.07;;;;;;;5.20;74.47;98527.78;4229665;33;34595;-86
2020/12/12 04:08:30;;;;;;;18.12;10.98;;;;;;;5.07;74.90;98528.38;4233836;33;33328;-96
2020/12/12 04:11:03;;;;;;;22.58;11.85;;;;;;;5.42;73.83;98520.66;4234556;33;34242;-96
2020/12/12 04:13:47;;;;;;;21.02;10.75;;;;;;;5.34;74.11;98523.44;4203284;34;33215;-96
2020/12/12 04:16:19;;;;;;;16.87;10.95;;;;;;;5.68;73.04;98524.75;4227565;28;34423;-96
2020/12/12 04:19:06;;;;;;;19.73;11.15;;;;;;;5.59;73.32;98532.06;4183187;34;32273;-95
2020/12/12 04:21:39;;;;;;;18.33;9.65;;;;;;;5.58;73.34;98533.88;4218917;34;34013;-87
2020/12/12 04:24:11;;;;;;;19.37;9.88;;;;;;;5.47;73.66;98535.19;4222446;34;33688;-96
2020/12/12 04:26:44;;;;;;;21.75;11.20;;;;;;;5.29;74.31;98534.72;4281977;28;33300;-88
2020/12/12 04:29:16;;;;;;;17.98;9.90;;;;;;;5.28;74.83;98531.22;4235739;33;33767;-96
2020/12/12 04:31:51;;;;;;;20.10;10.85;;;;;;;5.69;73.20;98532.63;4222683;28;34250;31
2020/12/12 04:34:24;;;;;;;22.27;11.82;;;;;;;5.67;73.33;98529.28;4228538;33;33793;-95
2020/12/12 04:39:47;;;;;;;37.42;22.33;;;;;;;5.65;73.44;98525.94;4209741;34;33842;-87
2020/12/12 04:42:20;;;;;;;48.40;28.83;;;;;;;5.72;72.96;98526.88;4207649;34;34598;-86
2020/12/12 04:44:53;;;;;;;27.87;17.30;;;;;;;5.56;73.70;98525.22;4208952;34;33261;-94
2020/12/12 04:47:26;;;;;;;19.75;12.30;;;;;;;5.19;75.29;98518.88;4196546;34;32926;-87
2020/12/12 04:49:59;;;;;;;18.60;11.25;;;;;;;5.19;75.19;98516.22;4208546;34;33651;-95
2020/12/12 04:52:31;;;;;;;21.30;12.00;;;;;;;4.93;75.88;98517.47;4195965;34;33882;-89
2020/12/12 04:55:06;;;;;;;21.50;11.60;;;;;;;5.04;75.48;98516.19;4230519;33;34656;-95
2020/12/12 04:57:39;;;;;;;23.80;12.43;;;;;;;5.30;74.64;98510.41;4208917;33;34981;-93
2020/12/12 05:00:13;;;;;;;24.23;12.48;;;;;;;4.76;76.88;98521.28;4208480;34;33646;-95
2020/12/12 05:02:46;;;;;;;21.17;12.98;;;;;;;4.89;76.25;98516.16;4207340;34;34697;-87
2020/12/12 05:05:19;;;;;;;17.80;10.55;;;;;;;5.05;76.10;98520.53;4208400;34;34331;-92
2020/12/12 05:07:51;;;;;;;23.17;13.05;;;;;;;4.85;76.53;98522.06;4207441;34;33904;-86
2020/12/12 05:10:26;;;;;;;21.05;10.48;;;;;;;5.16;75.54;98521.13;4196790;34;32601;-95
2020/12/12 05:12:58;;;;;;;20.80;11.80;;;;;;;5.13;75.96;98522.31;4197864;34;35012;-90
2020/12/12 05:15:30;;;;;;;21.65;11.02;;;;;;;4.88;76.91;98516.34;4207816;34;33465;-85
2020/12/12 05:18:02;;;;;;;22.90;11.85;;;;;;;4.84;77.26;98520.41;4207338;34;35030;-96
2020/12/12 05:20:47;;;;;;;21.10;11.15;;;;;;;5.14;76.16;98518.62;4193165;34;33568;-87
2020/12/12 05:23:24;;;;;;;26.02;13.02;;;;;;;5.33;75.42;98514.59;4204893;34;34527;-87
2020/12/12 05:25:57;;;;;;;26.73;13.77;;;;;;;5.30;75.48;98513.09;4215539;34;34669;-96
2020/12/12 05:28:29;;;;;;;16.55;10.38;;;;;;;5.42;75.13;98516.16;4210763;34;34357;-96
2020/12/12 05:31:13;;;;;;;18.05;9.85;;;;;;;4.97;76.55;98511.75;4167872;34;34355;-95
2020/12/12 05:33:45;;;;;;;18.87;10.25;;;;;;;5.01;76.00;98513.88;4169613;34;34289;-96
2020/12/12 05:36:38;;;;;;;18.48;9.32;;;;;;;5.13;75.57;98515.13;4182015;34;35066;-86
2020/12/12 05:39:13;;;;;;;16.55;10.43;;;;;;;5.15;75.11;98522.13;4166040;34;34324;-85
2020/12/12 05:41:47;;;;;;;18.85;11.60;;;;;;;4.95;76.08;98518.12;4169524;34;33545;-94
2020/12/12 05:44:40;;;;;;;19.83;10.73;;;;;;;5.02;76.09;98512.88;4174290;34;35314;-96
2020/12/12 05:47:25;;;;;;;20.60;9.75;;;;;;;4.80;76.63;98514.56;4211235;34;34245;-95
2020/12/12 05:49:57;;;;;;;21.92;10.93;;;;;;;4.90;75.99;98506.28;4194765;34;32666;-95
2020/12/12 05:52:43;;;;;;;18.05;10.55;;;;;;;4.81;76.29;98518.09;4204658;34;34727;-93
2020/12/12 05:55:16;;;;;;;20.83;10.57;;;;;;;4.46;77.04;98515.00;4266182;28;33334;-88
2020/12/12 05:57:52;;;;;;;21.37;11.07;;;;;;;4.23;78.62;98515.81;4204883;34;35231;-88
2020/12/12 06:00:26;;;;;;;23.75;10.98;;;;;;;4.68;77.04;98522.19;4205310;34;34757;-87
2020/12/12 06:03:04;;;;;;;24.42;11.60;;;;;;;4.88;76.21;98514.50;4204623;34;34294;-96
2020/12/12 06:05:46;;;;;;;19.15;10.45;;;;;;;4.77;76.18;98526.50;4292526;28;34642;-96
2020/12/12 06:08:38;;;;;;;20.98;11.23;;;;;;;4.52;76.94;98525.84;4217351;28;34264;-96
2020/12/12 06:11:10;;;;;;;21.08;9.90;;;;;;;4.54;76.77;98518.44;4206931;33;33190;-96
2020/12/12 06:14:00;;;;;;;25.40;10.95;;;;;;;4.69;76.48;98515.00;4240859;28;33602;-93
2020/12/12 06:16:34;;;;;;;20.73;12.05;;;;;;;4.87;75.84;98509.34;4171879;34;31218;-87
2020/12/12 06:19:18;;;;;;;19.08;10.30;;;;;;;4.55;76.95;98503.22;4242793;28;33524;-91
2020/12/12 06:21:50;;;;;;;19.58;10.85;;;;;;;4.24;77.10;98501.44;4228209;28;33388;-89
2020/12/12 06:24:22;;;;;;;22.42;11.52;;;;;;;4.47;76.94;98512.13;4279451;28;34651;-91
2020/12/12 06:27:10;;;;;;;20.40;10.93;;;;;;;4.14;77.08;98503.50;4354369;28;33431;-96
2020/12/12 06:30:03;;;;;;;19.27;11.48;;;;;;;3.99;77.99;98514.13;4203547;33;36783;-92
2020/12/12 06:32:36;;;;;;;17.73;10.02;;;;;;;4.63;76.16;98508.53;4225441;33;32351;-95
2020/12/12 06:35:13;;;;;;;22.23;11.90;;;;;;;3.98;78.23;98517.78;4245868;33;33803;-96
2020/12/12 06:37:50;;;;;;;26.95;14.55;;;;;;;4.16;77.86;98514.84;4220397;33;33447;-88
2020/12/12 06:40:39;;;;;;;18.17;10.85;;;;;;;4.42;77.24;98518.03;4213980;33;33841;-89
2020/12/12 06:43:35;;;;;;;15.05;9.13;;;;;;;4.64;76.23;98512.00;4207898;33;34254;-88
2020/12/12 06:46:07;;;;;;;19.37;10.65;;;;;;;4.81;75.47;98515.41;4208945;33;34199;-95
2020/12/12 06:48:41;;;;;;;15.32;9.82;;;;;;;4.27;77.27;98522.47;4208509;33;35278;-88
2020/12/12 06:51:13;;;;;;;16.10;9.48;;;;;;;4.73;75.55;98527.84;4234385;33;34208;-96
2020/12/12 06:54:11;;;;;;;14.13;9.07;;;;;;;4.41;75.59;98532.41;4210331;33;34169;-96
2020/12/12 06:57:48;;;;;;;17.55;9.45;;;;;;;4.07;76.61;98536.31;4207341;34;34464;-88
2020/12/12 07:00:26;;;;;;;19.80;10.60;;;;;;;4.27;76.91;98548.38;4218540;34;35148;-93
2020/12/12 07:03:21;;;;;;;19.42;9.98;;;;;;;4.34;76.55;98541.31;4179397;34;35460;-88
2020/12/12 07:06:05;;;;;;;17.83;10.65;;;;;;;4.63;75.68;98542.50;4203605;34;33497;-96
2020/12/12 07:08:38;;;;;;;18.95;11.40;;;;;;;4.90;74.63;98539.25;4184324;34;34895;-91
2020/12/12 07:11:09;;;;;;;20.15;11.77;;;;;;;4.32;77.06;98543.34;4206077;33;34379;-89
2020/12/12 07:13:42;;;;;;;20.00;10.95;;;;;;;4.57;76.36;98549.38;4198115;34;34311;-89
2020/12/12 07:16:18;;;;;;;20.15;10.55;;;;;;;4.33;76.76;98540.50;4195201;33;33425;-96
2020/12/12 07:19:18;;;;;;;19.02;11.10;;;;;;;4.45;75.95;98556.16;4201874;34;33022;-96
2020/12/12 07:21:59;;;;;;;18.77;9.00;;;;;;;4.62;75.35;98556.88;4185034;34;33814;-92
2020/12/12 07:24:38;;;;;;;18.60;9.45;;;;;;;4.11;76.52;98552.00;4246927;28;33495;-92
2020/12/12 07:27:35;;;;;;;21.73;9.98;;;;;;;3.78;78.11;98560.16;4134999;29;20124;-90
2020/12/12 07:30:08;;;;;;;20.90;11.18;;;;;;;4.12;76.70;98567.03;4141657;29;34684;-96
2020/12/12 07:32:41;;;;;;;19.27;11.30;;;;;;;4.07;77.01;98567.53;4099391;34;35459;-87
2020/12/12 07:35:14;;;;;;;19.80;10.52;;;;;;;4.13;76.88;98558.00;4119803;34;33923;-91
2020/12/12 07:37:47;;;;;;;19.42;10.90;;;;;;;4.09;76.63;98562.00;4085611;35;34243;-87
2020/12/12 07:40:20;;;;;;;27.40;11.82;;;;;;;4.38;76.11;98564.03;4194648;29;33666;-87
2020/12/12 07:43:02;;;;;;;18.87;11.25;;;;;;;3.94;77.66;98560.09;4135654;29;33714;-91
2020/12/12 07:48:31;;;;;;;15.48;9.15;;;;;;;4.14;76.82;98563.16;4198760;33;33589;-89
2020/12/12 07:51:14;;;;;;;19.35;11.57;;;;;;;3.99;77.88;98557.72;4230303;33;34470;-88
2020/12/12 07:53:46;;;;;;;18.50;10.02;;;;;;;3.87;78.25;98559.09;4274781;28;33546;-94
2020/12/12 07:56:21;;;;;;;21.27;11.35;;;;;;;3.92;77.49;98562.09;4408461;28;34661;-86
2020/12/12 07:59:06;;;;;;;16.85;9.63;;;;;;;4.00;77.44;98559.38;4441086;28;33963;-92
2020/12/12 08:01:39;;;;;;;19.40;10.52;;;;;;;4.27;76.09;98567.97;4284265;28;34558;-89
2020/12/12 08:04:19;;;;;;;19.75;10.63;;;;;;;4.10;77.01;98564.50;4399506;28;34780;-88
2020/12/12 08:07:09;;;;;;;;;;;;;;;4.51;75.50;98561.63;4324663;28;34587;31
2020/12/12 08:10:05;;;;;;;18.20;9.98;;;;;;;4.65;74.94;98559.19;4233856;28;32745;-94
2020/12/12 08:13:12;;;;;;;22.10;11.95;;;;;;;4.53;75.52;98561.44;4489222;28;30437;31
2020/12/12 08:16:28;;;;;;;29.17;14.80;;;;;;;4.47;75.90;98564.84;4250770;33;20532;-96
2020/12/12 08:19:26;;;;;;;28.25;14.25;;;;;;;4.33;75.95;98559.22;4202764;33;32382;-90
2020/12/12 08:22:25;;;;;;;22.67;12.48;;;;;;;4.45;76.33;98561.50;4427074;28;34131;-96
2020/12/12 08:25:20;;;;;;;24.12;12.55;;;;;;;4.66;75.57;98566.22;4233196;33;20106;-96
2020/12/12 08:28:04;;;;;;;26.30;12.68;;;;;;;4.77;74.95;98571.13;4214147;33;34237;-95
2020/12/12 08:30:44;;;;;;;28.02;14.43;;;;;;;4.38;76.66;98567.53;3950616;28;33670;-93
2020/12/12 08:33:21;;;;;;;27.10;14.18;;;;;;;4.18;77.42;98571.69;4195236;34;32353;-96
2020/12/12 08:39:30;;;;;;;28.50;14.48;;;;;;;4.30;77.11;98580.16;4239229;33;20111;-96
2020/12/12 08:42:24;;;;;;;25.12;14.60;;;;;;;4.97;74.70;98590.25;3719644;28;32606;31
2020/12/12 08:45:12;;;;;;;25.17;13.00;;;;;;;4.37;76.22;98591.78;4200246;33;33850;-94
2020/12/12 08:48:11;;;;;;;28.83;14.98;;;;;;;4.35;76.66;98594.66;4190961;34;34519;-94
2020/12/12 08:51:05;;;;;;;25.95;13.60;;;;;;;4.45;76.28;98597.13;4194077;34;32781;-95
2020/12/12 08:53:50;;;;;;;31.87;15.85;;;;;;;4.46;76.27;98597.94;4204789;34;33385;-96
2020/12/12 09:06:59;;;;;;;25.77;13.23;;;;;;;4.39;77.09;98590.63;2214406;28;20074;-94
2020/12/12 09:10:15;;;;;;;22.70;12.95;;;;;;;3.87;78.09;98586.66;4493754;28;20066;31
2020/12/12 09:14:24;;;;;;;;;;;;;;;;;;;;;
2020/12/12 09:17:39;;;;;;;28.15;13.93;;;;;;;4.15;77.53;98582.72;4327749;28;20110;-96
2020/12/12 09:21:14;;;;;;;25.70;14.18;;;;;;;4.60;75.66;98586.50;1130136;28;20387;-91
2020/12/12 09:24:02;;;;;;;29.23;16.35;;;;;;;4.53;76.38;98590.87;4195904;34;31742;-96
2020/12/12 09:26:51;;;;;;;29.15;15.57;;;;;;;5.08;74.62;98589.81;4159223;34;33152;-96
2020/12/12 09:29:25;;;;;;;28.08;14.07;;;;;;;4.41;76.43;98596.63;4175051;34;33916;-94
2020/12/12 09:32:18;;;;;;;27.25;15.07;;;;;;;4.55;76.32;98588.84;4196631;34;34428;-95
2020/12/12 09:34:50;;;;;;;32.55;16.48;;;;;;;4.47;76.36;98584.37;4178396;34;33869;-95
2020/12/12 09:37:23;;;;;;;25.10;14.50;;;;;;;4.61;75.88;98577.47;4168035;34;34502;-94
2020/12/12 09:48:05;;;;;;;29.95;16.80;;;;;;;4.89;75.19;98564.34;4438090;29;20079;-96
2020/12/12 09:51:59;;;;;;;24.65;13.85;;;;;;;5.22;73.85;98563.25;4154370;34;33015;-96
2020/12/12 09:56:22;;;;;;;23.38;13.75;;;;;;;5.44;73.63;98545.44;3989774;35;34329;-96
2020/12/12 10:00:36;;;;;;;20.73;12.27;;;;;;;5.72;72.42;98552.84;3989457;35;33856;-95
2020/12/12 10:03:31;;;;;;;19.80;11.95;;;;;;;5.54;72.51;98545.16;4030847;30;33389;-96
2020/12/12 10:06:56;;;;;;;19.33;12.20;;;;;;;4.98;75.03;98553.59;4030870;35;32598;-96
2020/12/12 10:09:22;;;;;;;20.60;12.37;;;;;;;5.79;72.24;98549.25;4036783;35;33743;-96
2020/12/12 10:12:10;;;;;;;23.27;14.48;;;;;;;5.60;72.37;98549.81;4054700;35;33683;-95
2020/12/12 10:18:25;;;;;;;19.30;12.00;;;;;;;5.37;73.14;98533.78;4436511;28;20477;-93
2020/12/12 10:21:00;;;;;;;21.40;13.05;;;;;;;5.72;72.89;98537.59;4128565;34;35367;-93
2020/12/12 10:23:33;;;;;;;18.35;11.77;;;;;;;5.83;72.36;98538.97;4139518;34;33140;-93
2020/12/12 10:26:32;;;;;;;20.48;12.65;;;;;;;6.00;71.98;98536.94;4292134;29;33093;-96
2020/12/12 10:29:04;;;;;;;21.33;12.25;;;;;;;6.12;71.25;98538.16;4279573;28;32576;-95
2020/12/12 10:31:58;;;;;;;25.23;13.82;;;;;;;6.31;70.80;98535.88;4212798;33;32668;-96
2020/12/12 10:34:34;;;;;;;20.35;12.98;;;;;;;5.90;71.98;98539.06;4206959;34;32747;-94
2020/12/12 10:37:10;;;;;;;22.40;12.48;;;;;;;5.94;71.93;98540.34;4218098;33;33004;-95
2020/12/12 10:39:58;;;;;;;23.35;11.45;;;;;;;5.42;72.70;98540.28;4219818;33;33939;-94
2020/12/12 10:42:34;;;;;;;21.52;12.82;;;;;;;5.77;72.09;98545.91;4219733;33;34382;-96
2020/12/12 10:45:12;;;;;;;23.00;12.65;;;;;;;5.55;72.74;98542.28;4221242;33;34701;-95
2020/12/12 10:47:59;;;;;;;24.85;14.50;;;;;;;5.75;72.36;98547.97;4187287;34;35377;-94
2020/12/12 10:54:10;;;;;;;28.23;14.87;;;;;;;5.77;72.40;98547.78;4390161;28;21501;-95
2020/12/12 10:57:37;;;;;;;28.77;14.30;;;;;;;5.66;72.58;98543.72;4783283;28;32838;31
2020/12/12 11:03:34;;;;;;;26.67;16.05;;;;;;;5.90;71.97;98549.78;4316652;28;33953;31
2020/12/12 11:06:06;;;;;;;23.00;13.80;;;;;;;5.88;72.34;98541.91;4363699;28;34298;-93
2020/12/12 11:08:56;;;;;;;21.83;13.30;;;;;;;5.84;72.43;98541.47;4217824;33;34555;-96
2020/12/12 11:11:58;;;;;;;21.65;12.77;;;;;;;5.69;72.84;98543.34;4402284;28;20099;-96
2020/12/12 11:14:34;;;;;;;22.30;13.48;;;;;;;5.53;73.24;98540.84;4361414;28;33681;-90
2020/12/12 11:17:06;;;;;;;21.95;12.98;;;;;;;6.14;71.79;98541.47;4191809;34;32653;-90
2020/12/12 11:22:59;;;;;;;31.05;16.23;;;;;;;5.88;72.08;98533.06;4215046;34;20691;-91
2020/12/12 11:25:49;;;;;;;120.25;60.20;;;;;;;5.81;72.60;98533.81;4332251;28;34046;31
2020/12/12 11:28:51;;;;;;;49.30;28.80;;;;;;;5.69;73.50;98540.66;4176633;28;33931;31
2020/12/12 11:31:38;;;;;;;26.80;14.02;;;;;;;5.35;73.94;98525.13;4186505;34;32725;-90
2020/12/12 11:34:20;;;;;;;30.45;14.95;;;;;;;5.10;74.73;98531.56;4191007;28;33045;-89
2020/12/12 11:40:19;;;;;;;18.35;11.82;;;;;;;6.03;72.37;98528.53;4181273;28;33319;-95
2020/12/12 11:48:37;;;;;;;28.12;14.20;;;;;;;5.54;73.79;98531.75;4186146;34;34036;-94
2020/12/12 11:51:10;;;;;;;26.62;13.52;;;;;;;5.87;73.07;98532.22;4239860;28;34107;-92
2020/12/12 11:53:42;;;;;;;22.58;12.48;;;;;;;5.75;73.73;98537.22;4218646;34;34630;-91
2020/12/12 11:56:23;;;;;;;30.17;17.20;;;;;;;5.97;72.67;98526.59;4195758;34;33779;-96
2020/12/12 11:59:12;;;;;;;27.15;16.08;;;;;;;6.29;71.77;98516.47;4159149;34;20208;-96
2020/12/12 12:01:45;;;;;;;22.48;13.52;;;;;;;6.12;72.09;98524.75;4201331;34;34294;-91
2020/12/12 12:04:18;;;;;;;25.58;14.60;;;;;;;6.30;71.79;98520.78;4181059;34;34589;-92
2020/12/12 12:06:50;;;;;;;24.67;14.50;;;;;;;6.24;71.67;98525.06;4200448;34;34689;-96
2020/12/12 12:10:08;;;;;;;25.05;13.40;;;;;;;5.81;72.94;98528.44;4206412;34;31984;-96
2020/12/12 12:12:41;;;;;;;23.12;14.40;;;;;;;5.15;75.23;98532.84;4186965;34;35128;-95
2020/12/12 12:15:44;;;;;;;19.67;11.73;;;;;;;5.89;73.11;98526.69;4197993;34;20504;-96
2020/12/12 12:18:16;;;;;;;20.62;12.25;;;;;;;6.19;72.21;98528.31;4187242;34;34140;-92
2020/12/12 12:20:49;;;;;;;26.75;14.25;;;;;;;6.50;71.11;98535.25;4192636;34;32291;-95
2020/12/12 12:23:22;;;;;;;24.10;14.40;;;;;;;6.48;71.52;98531.09;4196118;34;32799;-96
2020/12/12 12:26:16;;;;;;;45.70;24.90;;;;;;;6.06;73.05;98532.69;4202502;34;34136;-96
2020/12/12 12:28:49;;;;;;;44.58;21.05;;;;;;;5.86;73.14;98532.41;4192963;34;32745;-92
2020/12/12 12:31:22;;;;;;;22.83;13.13;;;;;;;6.44;71.59;98532.53;4192414;34;34384;-95
2020/12/12 12:33:54;;;;;;;24.83;15.68;;;;;;;6.32;71.65;98526.81;4218038;33;35018;-96
2020/12/12 12:36:40;;;;;;;35.72;23.70;;;;;;;6.14;71.84;98530.72;4222378;33;34458;-94
2020/12/12 12:39:12;;;;;;;24.12;15.30;;;;;;;6.70;70.68;98523.88;4199804;33;33102;-92
2020/12/12 12:41:45;;;;;;;24.87;16.00;;;;;;;6.94;70.34;98517.28;4220094;33;35163;-93
2020/12/12 12:44:18;;;;;;;19.80;12.25;;;;;;;6.39;71.73;98529.56;4233877;33;33034;-96
2020/12/12 12:47:03;;;;;;;33.03;23.02;;;;;;;6.38;71.90;98526.06;4190088;34;33513;-92
2020/12/12 12:49:35;;;;;;;27.50;17.42;;;;;;;6.74;70.98;98518.94;4202967;34;34574;-93
2020/12/12 12:52:10;;;;;;;28.02;14.70;;;;;;;6.22;72.52;98523.59;4193030;34;33836;-92
2020/12/12 12:54:43;;;;;;;23.80;14.90;;;;;;;6.82;70.59;98516.97;4196433;34;34279;-94
2020/12/12 12:57:21;;;;;;;24.12;14.57;;;;;;;6.42;71.71;98519.28;4184863;34;35020;-93
2020/12/12 12:59:53;;;;;;;23.67;15.60;;;;;;;6.45;71.77;98520.75;4207556;34;33845;-91
2020/12/12 13:02:29;;;;;;;23.27;16.40;;;;;;;6.41;72.31;98536.41;4215252;34;33226;-92
2020/12/12 13:05:01;;;;;;;21.95;14.43;;;;;;;6.51;72.03;98528.88;4193941;34;33906;-94
2020/12/12 13:08:17;;;;;;;25.90;15.75;;;;;;;6.83;71.17;98529.37;4193339;34;34798;-92
2020/12/12 13:10:48;;;;;;;27.08;16.20;;;;;;;6.49;72.14;98535.44;4196240;33;34533;-96
2020/12/12 13:13:51;;;;;;;26.65;16.92;;;;;;;6.64;71.54;98530.03;4186974;34;33904;-96
2020/12/12 13:16:26;;;;;;;21.02;13.48;;;;;;;6.51;71.59;98536.94;4198148;34;35354;-94
2020/12/12 13:19:09;;;;;;;20.00;13.15;;;;;;;6.25;72.42;98533.94;4200473;34;34556;-96
2020/12/12 13:21:58;;;;;;;26.73;15.68;;;;;;;6.48;72.00;98531.94;4220704;33;33209;-93
2020/12/12 13:24:50;;;;;;;20.70;14.75;;;;;;;6.45;72.07;98534.16;4215110;33;33222;-95
2020/12/12 13:27:22;;;;;;;25.92;16.10;;;;;;;6.06;73.91;98536.19;4210415;33;33343;-96